createdAt,value
2019-03-27T00:01:44.835Z,13.40
2019-03-27T00:04:12.160Z,19.02
2019-03-27T00:06:39.477Z,12.82
2019-03-27T00:09:06.866Z,13.88
2019-03-27T00:11:34.161Z,19.07
2019-03-27T00:14:01.469Z,12.73
2019-03-27T00:16:28.778Z,13.83
2019-03-27T00:18:56.085Z,13.60
2019-03-27T00:21:23.413Z,16.48
2019-03-27T00:23:50.707Z,13.22
2019-03-27T00:26:18.006Z,16.77
2019-03-27T00:28:45.317Z,17.60
2019-03-27T00:31:12.620Z,19.32
2019-03-27T00:33:39.932Z,14.15
2019-03-27T00:36:07.226Z,18.52
2019-03-27T00:38:34.555Z,12.95
2019-03-27T00:41:01.862Z,15.40
2019-03-27T00:43:29.153Z,14.40
2019-03-27T00:45:56.480Z,16.55
2019-03-27T00:48:23.776Z,12.60
2019-03-27T00:50:51.093Z,15.65
2019-03-27T00:53:18.385Z,14.45
2019-03-27T00:55:45.674Z,12.18
2019-03-27T00:58:12.998Z,11.65
2019-03-27T01:00:44.891Z,13.93
2019-03-27T01:03:12.211Z,11.95
2019-03-27T01:05:39.506Z,13.55
2019-03-27T01:08:06.812Z,18.27
2019-03-27T01:10:34.105Z,19.70
2019-03-27T01:13:01.423Z,17.20
2019-03-27T01:15:39.093Z,14.83
2019-03-27T01:17:57.654Z,16.27
2019-03-27T01:20:24.966Z,16.20
2019-03-27T01:22:52.275Z,18.60
2019-03-27T01:25:19.590Z,20.77
2019-03-27T01:27:46.886Z,23.25
2019-03-27T01:30:14.194Z,21.05
2019-03-27T01:32:41.491Z,19.45
2019-03-27T01:35:08.805Z,24.23
2019-03-27T01:37:36.102Z,19.07
2019-03-27T01:40:03.470Z,26.33
2019-03-27T01:42:30.796Z,21.50
2019-03-27T01:44:58.119Z,29.18
2019-03-27T01:47:25.438Z,24.70
2019-03-27T01:49:52.787Z,18.70
2019-03-27T01:52:20.063Z,17.35
2019-03-27T01:54:47.358Z,19.37
2019-03-27T01:57:14.674Z,17.48
2019-03-27T01:59:41.971Z,18.02
2019-03-27T02:02:09.282Z,18.48
2019-03-27T02:04:36.579Z,18.90
2019-03-27T02:07:03.893Z,17.82
2019-03-27T02:09:31.189Z,17.15
2019-03-27T02:11:58.511Z,16.12
2019-03-27T02:14:25.800Z,18.75
2019-03-27T02:16:53.098Z,21.35
2019-03-27T02:19:20.422Z,17.55
2019-03-27T02:21:47.714Z,21.35
2019-03-27T02:24:15.005Z,18.17
2019-03-27T02:26:42.323Z,17.57
2019-03-27T02:29:09.619Z,19.57
2019-03-27T02:31:36.926Z,24.37
2019-03-27T02:34:04.240Z,20.23
2019-03-27T02:36:31.563Z,18.07
2019-03-27T02:38:58.851Z,16.82
2019-03-27T02:41:26.215Z,16.90
2019-03-27T02:43:53.539Z,14.47
2019-03-27T02:46:24.860Z,15.55
2019-03-27T02:48:49.788Z,15.98
2019-03-27T02:51:17.084Z,15.88
2019-03-27T02:53:44.379Z,17.77
2019-03-27T02:56:11.669Z,14.35
2019-03-27T02:58:38.991Z,11.73
2019-03-27T03:01:06.279Z,19.90
2019-03-27T03:03:33.590Z,17.57
2019-03-27T03:06:00.907Z,15.85
2019-03-27T03:08:28.214Z,16.82
2019-03-27T03:10:55.503Z,15.63
2019-03-27T03:13:22.831Z,15.68
2019-03-27T03:15:50.111Z,17.73
2019-03-27T03:18:17.436Z,15.20
2019-03-27T03:20:44.728Z,17.70
2019-03-27T03:23:12.035Z,17.87
2019-03-27T03:25:39.382Z,18.10
2019-03-27T03:28:06.649Z,15.38
2019-03-27T03:30:33.950Z,15.40
2019-03-27T03:33:01.244Z,14.07
2019-03-27T03:35:28.595Z,14.47
2019-03-27T03:37:55.868Z,13.58
2019-03-27T03:40:23.159Z,14.20
2019-03-27T03:42:50.485Z,15.00
2019-03-27T03:45:17.809Z,15.72
2019-03-27T03:47:45.090Z,12.07
2019-03-27T03:50:14.028Z,11.90
2019-03-27T03:52:45.639Z,11.38
2019-03-27T03:55:10.295Z,13.58
2019-03-27T03:57:37.620Z,13.35
2019-03-27T04:00:06.057Z,16.00
2019-03-27T04:02:34.827Z,19.35
2019-03-27T04:05:02.311Z,18.30
2019-03-27T04:07:29.639Z,17.15
2019-03-27T04:09:56.924Z,21.62
2019-03-27T04:12:24.240Z,22.17
2019-03-27T04:14:51.530Z,15.70
2019-03-27T04:17:18.828Z,17.05
2019-03-27T04:19:46.138Z,20.90
2019-03-27T04:22:13.427Z,21.20
2019-03-27T04:24:40.751Z,22.25
2019-03-27T04:27:08.035Z,18.98
2019-03-27T04:29:35.354Z,18.40
2019-03-27T04:32:02.638Z,21.33
2019-03-27T04:34:29.934Z,19.80
2019-03-27T04:36:57.245Z,20.62
2019-03-27T04:39:24.559Z,15.38
2019-03-27T04:41:51.980Z,21.17
2019-03-27T04:44:19.279Z,19.70
2019-03-27T04:46:46.563Z,23.22
2019-03-27T04:49:13.896Z,20.00
2019-03-27T04:51:41.190Z,22.32
2019-03-27T04:54:08.502Z,22.48
2019-03-27T04:56:35.798Z,24.85
2019-03-27T04:59:03.110Z,24.27
2019-03-27T05:01:30.409Z,23.00
2019-03-27T05:03:57.974Z,28.17
2019-03-27T05:06:25.262Z,21.50
2019-03-27T05:08:52.584Z,22.00
2019-03-27T05:11:19.884Z,23.80
2019-03-27T05:13:47.206Z,28.98
2019-03-27T05:16:14.507Z,29.05
2019-03-27T05:18:41.798Z,38.40
2019-03-27T05:21:09.114Z,36.77
2019-03-27T05:23:36.447Z,40.58
2019-03-27T05:26:03.743Z,56.25
2019-03-27T05:28:31.042Z,30.52
2019-03-27T05:30:58.362Z,31.12
2019-03-27T05:33:25.658Z,23.98
2019-03-27T05:35:52.950Z,26.05
2019-03-27T05:38:20.271Z,39.13
2019-03-27T05:40:47.562Z,41.90
2019-03-27T05:43:14.882Z,34.45
2019-03-27T05:45:42.176Z,29.27
2019-03-27T05:48:09.488Z,23.18
2019-03-27T05:50:36.789Z,25.90
2019-03-27T05:53:04.091Z,32.23
2019-03-27T05:55:31.397Z,32.05
2019-03-27T05:57:58.693Z,28.35
2019-03-27T06:00:26.009Z,26.00
2019-03-27T06:02:53.310Z,26.75
2019-03-27T06:05:20.602Z,22.65
2019-03-27T06:07:47.918Z,24.65
2019-03-27T06:10:16.472Z,24.70
2019-03-27T06:12:43.911Z,25.97
2019-03-27T06:15:11.217Z,23.35
2019-03-27T06:17:38.514Z,24.12
2019-03-27T06:20:05.997Z,23.98
2019-03-27T06:22:33.299Z,25.85
2019-03-27T06:25:00.623Z,31.80
2019-03-27T06:27:27.918Z,27.98
2019-03-27T06:29:55.223Z,26.07
2019-03-27T06:32:22.547Z,29.80
2019-03-27T06:34:49.864Z,24.50
2019-03-27T06:37:17.177Z,26.23
2019-03-27T06:39:44.468Z,27.58
2019-03-27T06:42:11.767Z,25.25
2019-03-27T06:44:39.083Z,23.47
2019-03-27T06:47:06.378Z,25.05
2019-03-27T06:49:33.707Z,20.27
2019-03-27T06:52:00.999Z,22.67
2019-03-27T06:54:28.293Z,17.05
2019-03-27T06:56:55.638Z,19.00
2019-03-27T06:59:22.940Z,18.95
2019-03-27T07:01:50.235Z,14.78
2019-03-27T07:04:17.551Z,13.15
2019-03-27T07:06:44.855Z,14.28
2019-03-27T07:09:12.183Z,12.73
2019-03-27T07:11:39.485Z,14.55
2019-03-27T07:14:06.757Z,12.40
2019-03-27T07:16:34.081Z,8.68
2019-03-27T07:19:01.384Z,13.35
2019-03-27T07:21:28.678Z,10.30
2019-03-27T07:23:55.998Z,14.68
2019-03-27T07:26:23.286Z,9.48
2019-03-27T07:28:50.593Z,10.98
2019-03-27T07:31:17.895Z,13.72
2019-03-27T07:33:45.251Z,14.07
2019-03-27T07:36:12.567Z,9.90
2019-03-27T07:38:39.852Z,9.25
2019-03-27T07:41:07.146Z,13.25
2019-03-27T07:43:34.447Z,7.67
2019-03-27T07:46:01.741Z,8.55
2019-03-27T07:48:29.066Z,10.82
2019-03-27T07:50:56.357Z,12.13
2019-03-27T07:53:23.647Z,10.95
2019-03-27T07:55:50.950Z,8.20
2019-03-27T07:58:18.242Z,12.78
2019-03-27T08:00:45.570Z,8.20
2019-03-27T08:03:12.855Z,22.58
2019-03-27T08:05:40.163Z,11.03
2019-03-27T08:08:07.495Z,13.13
2019-03-27T08:10:34.794Z,7.55
2019-03-27T08:13:02.110Z,8.98
2019-03-27T08:15:29.423Z,5.12
2019-03-27T08:17:56.741Z,8.20
2019-03-27T08:20:24.026Z,9.93
2019-03-27T08:22:51.344Z,9.33
2019-03-27T08:25:18.663Z,13.30
2019-03-27T08:27:45.951Z,6.70
2019-03-27T08:30:13.609Z,6.20
2019-03-27T08:32:40.928Z,7.67
2019-03-27T08:35:08.281Z,7.40
2019-03-27T08:37:35.749Z,10.90
2019-03-27T08:40:03.221Z,9.35
2019-03-27T08:42:30.527Z,10.60
2019-03-27T08:44:57.830Z,8.83
2019-03-27T08:47:25.108Z,4.72
2019-03-27T08:49:52.434Z,8.53
2019-03-27T08:52:19.712Z,6.03
2019-03-27T08:54:46.988Z,5.28
2019-03-27T08:57:14.293Z,7.58
2019-03-27T08:59:41.599Z,6.90
2019-03-27T09:02:08.895Z,8.68
2019-03-27T09:04:36.174Z,3.65
2019-03-27T09:07:03.488Z,4.20
2019-03-27T09:09:30.838Z,4.83
2019-03-27T09:11:58.060Z,2.87
2019-03-27T09:14:25.381Z,6.00
2019-03-27T09:16:52.679Z,4.53
2019-03-27T09:19:19.984Z,5.28
2019-03-27T09:21:47.271Z,3.22
2019-03-27T09:24:14.587Z,4.22
2019-03-27T09:26:41.874Z,2.77
2019-03-27T09:29:09.154Z,2.47
2019-03-27T09:31:44.651Z,7.42
2019-03-27T09:34:05.398Z,3.37
2019-03-27T09:36:32.717Z,2.77
2019-03-27T09:39:00.013Z,2.35
2019-03-27T09:41:27.317Z,3.00
2019-03-27T09:43:54.619Z,4.08
2019-03-27T09:46:21.933Z,3.00
2019-03-27T09:48:49.227Z,2.77
2019-03-27T09:51:16.522Z,3.47
2019-03-27T09:53:43.822Z,5.00
2019-03-27T09:56:19.107Z,3.05
2019-03-27T09:58:40.050Z,3.70
2019-03-27T10:01:07.374Z,2.83
2019-03-27T10:03:34.676Z,2.62
2019-03-27T10:06:01.971Z,2.55
2019-03-27T10:08:29.258Z,5.95
2019-03-27T10:10:56.562Z,5.65
2019-03-27T10:13:23.875Z,4.42
2019-03-27T10:15:51.169Z,2.45
2019-03-27T10:18:18.473Z,6.92
2019-03-27T10:20:45.758Z,4.08
2019-03-27T10:23:13.083Z,5.90
2019-03-27T10:25:40.400Z,6.47
2019-03-27T10:28:07.689Z,9.48
2019-03-27T10:30:34.979Z,3.98
2019-03-27T10:33:02.301Z,7.35
2019-03-27T10:35:29.626Z,2.77
2019-03-27T10:37:56.929Z,5.25
2019-03-27T10:40:24.223Z,3.47
2019-03-27T10:42:51.525Z,3.72
2019-03-27T10:45:18.805Z,4.97
2019-03-27T10:47:46.121Z,4.53
2019-03-27T10:50:17.849Z,4.15
2019-03-27T10:52:42.372Z,5.45
2019-03-27T10:55:09.677Z,4.05
2019-03-27T10:57:36.977Z,3.02
2019-03-27T11:00:09.922Z,8.38
2019-03-27T11:02:37.225Z,4.45
2019-03-27T11:05:05.477Z,3.47
2019-03-27T11:07:32.790Z,3.65
2019-03-27T11:10:00.335Z,3.67
2019-03-27T11:12:27.596Z,3.60
2019-03-27T11:14:54.868Z,3.27
2019-03-27T11:17:22.169Z,3.83
2019-03-27T11:19:49.449Z,9.23
2019-03-27T11:22:16.774Z,2.83
2019-03-27T11:24:44.062Z,3.12
2019-03-27T11:27:11.355Z,4.83
2019-03-27T11:29:38.665Z,8.23
2019-03-27T11:32:05.974Z,3.95
2019-03-27T11:34:33.283Z,4.17
2019-03-27T11:37:00.570Z,7.90
2019-03-27T11:39:27.883Z,5.83
2019-03-27T11:41:55.183Z,2.90
2019-03-27T11:44:22.483Z,4.87
2019-03-27T11:46:49.796Z,4.30
2019-03-27T11:49:17.099Z,9.70
2019-03-27T11:51:44.415Z,5.20
2019-03-27T11:54:11.715Z,4.15
2019-03-27T11:56:39.011Z,5.45
2019-03-27T11:59:06.323Z,4.20
2019-03-27T12:01:40.645Z,4.60
2019-03-27T12:04:02.569Z,8.80
2019-03-27T12:06:29.849Z,5.55
2019-03-27T12:08:57.139Z,2.87
2019-03-27T12:11:24.452Z,4.03
2019-03-27T12:13:51.736Z,8.35
2019-03-27T12:16:19.046Z,3.17
2019-03-27T12:18:46.338Z,5.28
2019-03-27T12:21:13.645Z,2.65
2019-03-27T12:23:40.929Z,8.48
2019-03-27T12:26:08.209Z,4.60
2019-03-27T12:28:35.509Z,3.22
2019-03-27T12:31:02.835Z,4.15
2019-03-27T12:33:30.121Z,5.22
2019-03-27T12:35:57.412Z,5.53
2019-03-27T12:38:24.717Z,3.95
2019-03-27T12:40:52.015Z,2.35
2019-03-27T12:43:19.313Z,3.83
2019-03-27T12:45:46.618Z,3.90
2019-03-27T12:48:14.003Z,2.80
2019-03-27T12:50:44.220Z,5.05
2019-03-27T12:53:10.223Z,9.40
2019-03-27T12:55:37.545Z,6.00
2019-03-27T12:58:04.834Z,5.90
2019-03-27T13:00:32.132Z,7.00
2019-03-27T13:02:59.439Z,7.50
2019-03-27T13:05:26.920Z,10.70
2019-03-27T13:07:54.436Z,3.85
2019-03-27T13:10:21.722Z,3.85
2019-03-27T13:12:49.040Z,2.55
2019-03-27T13:15:16.325Z,2.50
2019-03-27T13:17:43.610Z,4.22
2019-03-27T13:20:13.846Z,7.60
2019-03-27T13:22:41.129Z,7.25
2019-03-27T13:25:08.519Z,2.65
2019-03-27T13:27:35.803Z,3.25
2019-03-27T13:30:04.285Z,2.08
2019-03-27T13:32:31.603Z,6.30
2019-03-27T13:34:58.895Z,4.85
2019-03-27T13:37:26.185Z,5.28
2019-03-27T13:39:53.507Z,2.30
2019-03-27T13:42:20.796Z,3.40
2019-03-27T13:44:48.087Z,7.08
2019-03-27T13:47:15.532Z,12.68
2019-03-27T13:49:42.902Z,4.12
2019-03-27T13:52:10.219Z,7.72
2019-03-27T13:54:37.498Z,5.22
2019-03-27T13:57:04.815Z,4.12
2019-03-27T13:59:32.112Z,5.35
2019-03-27T14:01:59.421Z,9.05
2019-03-27T14:04:26.718Z,5.72
2019-03-27T14:06:54.011Z,4.12
2019-03-27T14:09:21.333Z,2.02
2019-03-27T14:11:48.614Z,3.12
2019-03-27T14:14:15.906Z,2.77
2019-03-27T14:16:43.210Z,3.30
2019-03-27T14:19:10.493Z,3.17
2019-03-27T14:21:37.808Z,3.08
2019-03-27T14:24:05.094Z,2.58
2019-03-27T14:26:44.560Z,2.92
2019-03-27T14:29:01.339Z,2.70
2019-03-27T14:31:28.626Z,4.17
2019-03-27T14:33:55.938Z,4.08
2019-03-27T14:36:23.216Z,1.82
2019-03-27T14:38:50.536Z,3.55
2019-03-27T14:41:17.846Z,6.17
2019-03-27T14:43:45.143Z,3.27
2019-03-27T14:46:12.453Z,3.15
2019-03-27T14:48:39.745Z,2.52
2019-03-27T14:51:07.053Z,3.33
2019-03-27T14:53:34.344Z,3.83
2019-03-27T14:56:01.661Z,2.77
2019-03-27T14:58:28.955Z,1.52
2019-03-27T15:00:56.250Z,3.62
2019-03-27T15:03:23.582Z,2.60
2019-03-27T15:05:50.879Z,5.50
2019-03-27T15:08:18.160Z,6.27
2019-03-27T15:10:45.471Z,3.73
2019-03-27T15:13:15.301Z,3.30
2019-03-27T15:15:41.725Z,1.90
2019-03-27T15:18:08.997Z,3.87
2019-03-27T15:20:36.301Z,3.25
2019-03-27T15:23:03.627Z,5.43
2019-03-27T15:25:30.915Z,2.93
2019-03-27T15:27:58.202Z,2.30
2019-03-27T15:30:25.502Z,3.77
2019-03-27T15:32:52.830Z,5.17
2019-03-27T15:35:20.138Z,2.30
2019-03-27T15:37:47.450Z,64.10
2019-03-27T15:40:14.737Z,17.47
2019-03-27T15:42:42.030Z,2.80
2019-03-27T15:45:09.913Z,4.03
2019-03-27T15:47:37.266Z,3.30
2019-03-27T15:50:04.942Z,2.47
2019-03-27T15:52:36.594Z,4.53
2019-03-27T15:55:01.178Z,2.90
2019-03-27T15:57:28.501Z,7.00
2019-03-27T15:59:55.796Z,3.98
2019-03-27T16:02:23.099Z,4.00
2019-03-27T16:04:50.414Z,3.47
2019-03-27T16:07:17.706Z,2.85
2019-03-27T16:09:45.000Z,5.95
2019-03-27T16:12:12.335Z,6.42
2019-03-27T16:14:39.626Z,3.27
2019-03-27T16:17:13.082Z,4.45
2019-03-27T16:19:35.877Z,3.90
2019-03-27T16:22:03.187Z,7.58
2019-03-27T16:24:30.483Z,6.55
2019-03-27T16:27:04.258Z,6.05
2019-03-27T16:29:26.732Z,2.20
2019-03-27T16:31:54.027Z,4.60
2019-03-27T16:34:21.335Z,4.58
2019-03-27T16:36:48.639Z,2.27
2019-03-27T16:39:15.924Z,3.40
2019-03-27T16:41:43.229Z,7.58
2019-03-27T16:44:10.553Z,6.47
2019-03-27T16:46:37.828Z,10.30
2019-03-27T16:49:05.123Z,7.55
2019-03-27T16:51:32.434Z,4.35
2019-03-27T16:53:59.730Z,3.80
2019-03-27T16:56:27.019Z,2.77
2019-03-27T16:58:54.341Z,3.20
2019-03-27T17:01:21.637Z,3.33
2019-03-27T17:03:48.951Z,4.60
2019-03-27T17:06:16.229Z,4.33
2019-03-27T17:08:43.549Z,2.45
2019-03-27T17:11:10.846Z,2.90
2019-03-27T17:13:38.139Z,5.85
2019-03-27T17:16:05.441Z,8.05
2019-03-27T17:18:32.767Z,3.87
2019-03-27T17:21:00.042Z,5.50
2019-03-27T17:23:27.339Z,3.12
2019-03-27T17:25:54.765Z,4.40
2019-03-27T17:28:22.045Z,3.65
2019-03-27T17:30:49.335Z,8.75
2019-03-27T17:33:16.656Z,3.10
2019-03-27T17:35:43.950Z,5.03
2019-03-27T17:38:11.227Z,6.97
2019-03-27T17:40:38.546Z,6.25
2019-03-27T17:43:05.832Z,2.90
2019-03-27T17:45:33.127Z,8.08
2019-03-27T17:48:00.440Z,3.72
2019-03-27T17:50:27.722Z,12.15
2019-03-27T17:52:55.038Z,4.60
2019-03-27T17:55:22.352Z,6.20
2019-03-27T17:57:49.647Z,3.52
2019-03-27T18:00:20.254Z,3.42
2019-03-27T18:02:47.578Z,13.28
2019-03-27T18:05:14.867Z,7.75
2019-03-27T18:07:42.181Z,10.65
2019-03-27T18:10:09.490Z,11.30
2019-03-27T18:12:36.801Z,4.62
2019-03-27T18:15:05.363Z,4.17
2019-03-27T18:17:32.678Z,5.30
2019-03-27T18:19:59.978Z,4.30
2019-03-27T18:22:27.280Z,8.45
2019-03-27T18:24:55.447Z,5.15
2019-03-27T18:27:22.728Z,6.80
2019-03-27T18:29:50.041Z,9.55
2019-03-27T18:32:17.325Z,17.17
2019-03-27T18:34:44.629Z,9.83
2019-03-27T18:37:11.927Z,13.75
2019-03-27T18:39:39.242Z,15.55
2019-03-27T18:42:06.525Z,16.82
2019-03-27T18:44:33.825Z,23.32
2019-03-27T18:47:01.143Z,20.20
2019-03-27T18:49:28.507Z,14.47
2019-03-27T18:51:55.807Z,12.93
2019-03-27T18:54:23.626Z,13.28
2019-03-27T18:56:50.995Z,9.25
2019-03-27T18:59:18.306Z,18.57
2019-03-27T19:01:45.633Z,12.85
2019-03-27T19:04:12.999Z,10.70
2019-03-27T19:06:40.315Z,9.33
2019-03-27T19:09:08.198Z,8.98
2019-03-27T19:11:35.528Z,11.18
2019-03-27T19:14:02.817Z,8.40
2019-03-27T19:16:30.093Z,7.90
2019-03-27T19:18:57.408Z,7.70
2019-03-27T19:21:24.708Z,5.75
2019-03-27T19:23:51.990Z,5.05
2019-03-27T19:26:19.304Z,7.50
2019-03-27T19:28:46.642Z,4.78
2019-03-27T19:31:13.932Z,4.12
2019-03-27T19:33:41.209Z,5.72
2019-03-27T19:36:08.528Z,4.87
2019-03-27T19:38:35.829Z,5.30
2019-03-27T19:41:03.286Z,9.70
2019-03-27T19:43:30.569Z,8.83
2019-03-27T19:45:57.873Z,15.32
2019-03-27T19:48:25.170Z,14.70
2019-03-27T19:50:52.487Z,10.35
2019-03-27T19:53:19.777Z,9.25
2019-03-27T19:55:47.087Z,7.67
2019-03-27T19:58:14.365Z,7.92
2019-03-27T20:00:41.668Z,9.63
2019-03-27T20:03:08.969Z,7.00
2019-03-27T20:05:36.263Z,14.45
2019-03-27T20:08:03.562Z,29.30
2019-03-27T20:10:30.888Z,22.65
2019-03-27T20:12:58.210Z,20.43
2019-03-27T20:15:25.503Z,16.23
2019-03-27T20:17:52.853Z,7.22
2019-03-27T20:20:20.173Z,11.60
2019-03-27T20:22:47.466Z,5.58
2019-03-27T20:25:15.029Z,6.10
2019-03-27T20:27:42.478Z,12.40
2019-03-27T20:30:13.497Z,4.90
2019-03-27T20:32:40.895Z,8.65
2019-03-27T20:35:08.165Z,5.78
2019-03-27T20:37:35.449Z,5.20
2019-03-27T20:40:03.529Z,5.53
2019-03-27T20:42:30.817Z,8.68
2019-03-27T20:44:58.138Z,11.95
2019-03-27T20:47:25.423Z,9.03
2019-03-27T20:49:52.710Z,10.03
2019-03-27T20:52:20.027Z,13.25
2019-03-27T20:54:54.771Z,7.12
2019-03-27T20:57:16.284Z,7.08
2019-03-27T20:59:43.573Z,9.33
2019-03-27T21:02:10.891Z,6.28
2019-03-27T21:04:38.180Z,6.65
2019-03-27T21:07:05.472Z,7.20
2019-03-27T21:09:32.807Z,10.05
2019-03-27T21:12:00.097Z,7.40
2019-03-27T21:14:27.415Z,12.37
2019-03-27T21:16:54.709Z,9.18
2019-03-27T21:19:21.993Z,11.35
2019-03-27T21:21:49.318Z,12.95
2019-03-27T21:24:16.634Z,22.60
2019-03-27T21:26:43.934Z,20.08
2019-03-27T21:29:11.262Z,19.07
2019-03-27T21:31:38.630Z,17.02
2019-03-27T21:34:05.876Z,17.87
2019-03-27T21:36:33.159Z,16.32
2019-03-27T21:39:00.450Z,12.35
2019-03-27T21:41:27.770Z,12.28
2019-03-27T21:43:55.045Z,14.75
2019-03-27T21:46:22.364Z,14.35
2019-03-27T21:48:49.655Z,11.97
2019-03-27T21:51:16.937Z,7.97
2019-03-27T21:53:50.252Z,8.08
2019-03-27T21:56:13.224Z,12.95
2019-03-27T21:58:40.508Z,30.62
2019-03-27T22:01:07.799Z,19.05
2019-03-27T22:03:35.054Z,18.20
2019-03-27T22:06:02.431Z,11.83
2019-03-27T22:08:29.722Z,11.12
2019-03-27T22:10:57.047Z,27.37
2019-03-27T22:13:24.371Z,19.77
2019-03-27T22:15:51.667Z,17.60
2019-03-27T22:18:18.993Z,17.62
2019-03-27T22:20:46.336Z,11.35
2019-03-27T22:23:13.632Z,13.72
2019-03-27T22:25:40.943Z,9.43
2019-03-27T22:28:08.226Z,8.73
2019-03-27T22:30:35.553Z,10.30
2019-03-27T22:33:02.865Z,10.88
2019-03-27T22:35:30.165Z,10.60
2019-03-27T22:37:57.468Z,10.58
2019-03-27T22:40:24.782Z,10.85
2019-03-27T22:42:52.069Z,11.15
2019-03-27T22:45:19.356Z,12.05
2019-03-27T22:47:46.678Z,12.20
2019-03-27T22:50:13.987Z,10.80
2019-03-27T22:52:41.293Z,11.95
2019-03-27T22:55:08.572Z,13.95
2019-03-27T22:57:35.877Z,10.00
2019-03-27T23:00:04.617Z,10.40
2019-03-27T23:02:31.966Z,9.70
2019-03-27T23:04:59.302Z,10.23
2019-03-27T23:07:26.576Z,9.65
2019-03-27T23:09:53.852Z,9.88
2019-03-27T23:12:21.188Z,10.28
2019-03-27T23:14:48.477Z,12.43
2019-03-27T23:17:15.757Z,12.70
2019-03-27T23:19:43.070Z,10.20
2019-03-27T23:22:10.399Z,14.05
2019-03-27T23:24:37.689Z,10.93
2019-03-27T23:27:05.008Z,9.70
2019-03-27T23:29:32.291Z,10.65
2019-03-27T23:31:59.607Z,9.55
2019-03-27T23:34:26.904Z,12.10
2019-03-27T23:36:54.214Z,10.63
2019-03-27T23:39:21.507Z,10.45
2019-03-27T23:41:48.823Z,11.90
2019-03-27T23:44:16.196Z,10.45
2019-03-27T23:46:43.482Z,9.48
2019-03-27T23:49:10.795Z,12.25
2019-03-27T23:51:38.090Z,10.53
2019-03-27T23:54:05.409Z,10.53
2019-03-27T23:56:32.698Z,10.38
2019-03-27T23:59:00.017Z,10.80
